Terminal Aerodrome Forecast
Issued by NWS Sterling, VA

Current Version | Previous Version | Graphics & Text | Print | Product List | Glossary On
Versions: 1 2 3 4 5 6 7 8 9 10 11 12 13 14 15 16 17 18 19 20 21 22 23 24
139
FTUS41 KLWX 051140
TAFMRB
TAF
KMRB 051140Z 0512/0612 04006KT 4SM BR SCT009 OVC015
     FM051500 03006KT P6SM OVC025
     FM060000 36006KT 3SM SHRA OVC015=

USA.gov is the U.S. government's official web portal to all federal, state and local government web resources and services.